createdAt,value
2019-02-16T00:00:06.438Z,-1.2
2019-02-16T00:00:54.848Z,-1.4
2019-02-16T00:01:40.798Z,-1.4
2019-02-16T00:02:26.705Z,-1.5
2019-02-16T00:03:12.628Z,-1.5
2019-02-16T00:03:58.551Z,-1.4
2019-02-16T00:04:44.472Z,-1.1
2019-02-16T00:05:30.430Z,-0.9
2019-02-16T00:06:16.345Z,-0.9
2019-02-16T00:07:02.267Z,-0.7
2019-02-16T00:07:48.176Z,-0.7
2019-02-16T00:08:34.083Z,-0.6
2019-02-16T00:09:20.002Z,-0.6
2019-02-16T00:10:05.915Z,-0.7
2019-02-16T00:10:51.855Z,-0.6
2019-02-16T00:11:37.786Z,-0.5
2019-02-16T00:12:23.769Z,-0.6
2019-02-16T00:13:09.689Z,-0.5
2019-02-16T00:13:55.612Z,-0.6
2019-02-16T00:14:41.528Z,-0.6
2019-02-16T00:15:27.471Z,-0.6
2019-02-16T00:16:13.389Z,-0.5
2019-02-16T00:16:59.301Z,-0.5
2019-02-16T00:17:45.212Z,-0.4
2019-02-16T00:18:31.133Z,-0.4
2019-02-16T00:19:17.069Z,-0.4
2019-02-16T00:20:02.987Z,-0.4
2019-02-16T00:20:48.937Z,-0.4
2019-02-16T00:21:34.856Z,-0.4
2019-02-16T00:22:20.770Z,-0.3
2019-02-16T00:23:06.690Z,-0.3
2019-02-16T00:23:52.624Z,-0.3
2019-02-16T00:24:38.533Z,-0.3
2019-02-16T00:25:24.446Z,-0.3
2019-02-16T00:26:10.389Z,-0.5
2019-02-16T00:26:56.316Z,-0.7
2019-02-16T00:27:42.228Z,-0.9
2019-02-16T00:28:28.142Z,-0.9
2019-02-16T00:29:14.045Z,-1
2019-02-16T00:29:59.958Z,-1
2019-02-16T00:30:45.911Z,-1.1
2019-02-16T00:31:31.822Z,-1.1
2019-02-16T00:32:17.739Z,-1.1
2019-02-16T00:33:03.659Z,-1.1
2019-02-16T00:33:49.572Z,-1.1
2019-02-16T00:34:35.498Z,-1.2
2019-02-16T00:35:21.417Z,-1.2
2019-02-16T00:36:07.362Z,-1.1
2019-02-16T00:36:53.282Z,-1.1
2019-02-16T00:37:39.198Z,-1.2
2019-02-16T00:38:25.119Z,-1.1
2019-02-16T00:39:11.038Z,-0.9
2019-02-16T00:39:56.957Z,-0.9
2019-02-16T00:40:42.901Z,-0.9
2019-02-16T00:41:28.830Z,-0.9
2019-02-16T00:42:14.755Z,-0.8
2019-02-16T00:43:00.680Z,-0.8
2019-02-16T00:43:46.590Z,-0.8
2019-02-16T00:44:32.503Z,-0.8
2019-02-16T00:45:18.415Z,-0.7
2019-02-16T00:46:04.362Z,-0.6
2019-02-16T00:46:50.295Z,-0.6
2019-02-16T00:47:36.221Z,-0.5
2019-02-16T00:48:22.148Z,-0.5
2019-02-16T00:49:08.067Z,-0.5
2019-02-16T00:49:53.985Z,-0.6
2019-02-16T00:50:39.912Z,-0.7
2019-02-16T00:51:25.865Z,-0.9
2019-02-16T00:52:11.779Z,-0.9
2019-02-16T00:52:57.702Z,-1
2019-02-16T00:53:43.625Z,-1.2
2019-02-16T00:54:29.536Z,-1.3
2019-02-16T00:55:15.451Z,-1.4
2019-02-16T00:56:01.399Z,-1.5
2019-02-16T00:56:47.323Z,-1.6
2019-02-16T00:57:33.229Z,-1.5
2019-02-16T00:58:19.159Z,-1.4
2019-02-16T00:59:05.075Z,-1.4
2019-02-16T00:59:50.989Z,-1.5
2019-02-16T01:00:36.979Z,-1.6
2019-02-16T01:01:22.921Z,-1.6
2019-02-16T01:02:08.839Z,-1.6
2019-02-16T01:02:54.761Z,-1.6
2019-02-16T01:03:40.685Z,-1.6
2019-02-16T01:04:26.604Z,-1.8
2019-02-16T01:05:12.522Z,-1.8
2019-02-16T01:05:58.487Z,-1.7
2019-02-16T01:06:44.405Z,-1.6
2019-02-16T01:07:30.321Z,-1.8
2019-02-16T01:08:16.234Z,-1.9
2019-02-16T01:09:02.187Z,-1.8
2019-02-16T01:09:48.147Z,-1.8
2019-02-16T01:10:34.083Z,-1.8
2019-02-16T01:11:20.030Z,-1.8
2019-02-16T01:12:05.943Z,-1.8
2019-02-16T01:12:51.858Z,-1.8
2019-02-16T01:13:37.775Z,-1.9
2019-02-16T01:14:23.692Z,-2
2019-02-16T01:15:09.600Z,-1.9
2019-02-16T01:15:55.520Z,-1.9
2019-02-16T01:16:41.485Z,-1.6
2019-02-16T01:17:27.398Z,-1.5
2019-02-16T01:18:13.326Z,-1.4
2019-02-16T01:18:59.236Z,-1.4
2019-02-16T01:19:45.160Z,-1.4
2019-02-16T01:20:31.078Z,-1.3
2019-02-16T01:21:22.691Z,-1.3
2019-02-16T01:22:07.889Z,-1.3
2019-02-16T01:22:53.808Z,-1.3
2019-02-16T01:23:39.796Z,-1.3
2019-02-16T01:24:25.706Z,-1.2
2019-02-16T01:25:11.624Z,-1.2
2019-02-16T01:25:57.548Z,-1.2
2019-02-16T01:26:43.492Z,-1.1
2019-02-16T01:27:29.404Z,-1.1
2019-02-16T01:28:15.319Z,-1.1
2019-02-16T01:29:01.228Z,-1.1
2019-02-16T01:29:47.149Z,-1.1
2019-02-16T01:30:33.073Z,-1.1
2019-02-16T01:31:19.006Z,-1
2019-02-16T01:32:04.917Z,-1.1
2019-02-16T01:32:50.842Z,-1.1
2019-02-16T01:33:36.762Z,-1.2
2019-02-16T01:34:22.683Z,-1.1
2019-02-16T01:35:08.596Z,-1.1
2019-02-16T01:35:54.510Z,-1.1
2019-02-16T01:36:40.463Z,-1.1
2019-02-16T01:37:26.371Z,-1.2
2019-02-16T01:38:12.287Z,-1.1
2019-02-16T01:38:58.214Z,-1.2
2019-02-16T01:39:44.135Z,-1.2
2019-02-16T01:40:30.056Z,-1.2
2019-02-16T01:41:15.978Z,-1.2
2019-02-16T01:42:01.922Z,-1.1
2019-02-16T01:42:47.845Z,-1.2
2019-02-16T01:43:33.772Z,-1.1
2019-02-16T01:44:19.688Z,-1.1
2019-02-16T01:45:05.609Z,-1.1
2019-02-16T01:45:51.524Z,-1.1
2019-02-16T01:46:37.465Z,-1.1
2019-02-16T01:47:23.379Z,-1.1
2019-02-16T01:48:09.294Z,-1.1
2019-02-16T01:48:55.201Z,-1.1
2019-02-16T01:49:41.114Z,-1.1
2019-02-16T01:50:27.023Z,-1.1
2019-02-16T01:51:12.945Z,-1
2019-02-16T01:51:58.909Z,-0.9
2019-02-16T01:52:44.832Z,-0.9
2019-02-16T01:53:30.749Z,-0.9
2019-02-16T01:54:16.662Z,-0.9
2019-02-16T01:55:02.576Z,-0.9
2019-02-16T01:55:48.490Z,-0.9
2019-02-16T01:56:34.419Z,-0.9
2019-02-16T01:57:20.365Z,-0.9
2019-02-16T01:58:06.270Z,-0.9
2019-02-16T01:58:52.182Z,-0.9
2019-02-16T01:59:38.097Z,-1
2019-02-16T02:00:24.121Z,-0.9
2019-02-16T02:01:10.032Z,-0.9
2019-02-16T02:01:55.968Z,-0.9
2019-02-16T02:02:41.894Z,-1
2019-02-16T02:03:27.809Z,-1.1
2019-02-16T02:04:13.725Z,-1.3
2019-02-16T02:04:59.635Z,-1.4
2019-02-16T02:05:45.559Z,-1.5
2019-02-16T02:06:31.483Z,-1.6
2019-02-16T02:07:17.443Z,-1.7
2019-02-16T02:08:03.359Z,-1.7
2019-02-16T02:08:49.276Z,-1.6
2019-02-16T02:09:35.187Z,-1.6
2019-02-16T02:10:21.105Z,-1.6
2019-02-16T02:11:07.019Z,-1.6
2019-02-16T02:11:52.967Z,-1.6
2019-02-16T02:12:38.885Z,-1.6
2019-02-16T02:13:24.804Z,-1.6
2019-02-16T02:14:10.719Z,-1.7
2019-02-16T02:14:56.627Z,-1.5
2019-02-16T02:15:42.550Z,-1.4
2019-02-16T02:16:28.503Z,-1.4
2019-02-16T02:17:14.446Z,-1.3
2019-02-16T02:18:05.333Z,-1.2
2019-02-16T02:18:51.287Z,-1.2
2019-02-16T02:19:37.225Z,-1.3
2019-02-16T02:20:23.161Z,-1.3
2019-02-16T02:21:09.070Z,-1.3
2019-02-16T02:21:54.986Z,-1.3
2019-02-16T02:22:40.922Z,-1.3
2019-02-16T02:23:26.832Z,-1.3
2019-02-16T02:24:12.746Z,-1.3
2019-02-16T02:24:58.658Z,-1.3
2019-02-16T02:25:44.574Z,-1.3
2019-02-16T02:26:30.495Z,-1.3
2019-02-16T02:27:16.437Z,-1.3
2019-02-16T02:28:02.349Z,-1.3
2019-02-16T02:28:48.265Z,-1.3
2019-02-16T02:29:34.202Z,-1.4
2019-02-16T02:30:20.107Z,-1.4
2019-02-16T02:31:06.037Z,-1.6
2019-02-16T02:31:51.960Z,-1.7
2019-02-16T02:32:37.941Z,-1.8
2019-02-16T02:33:23.852Z,-1.8
2019-02-16T02:34:09.768Z,-1.8
2019-02-16T02:34:55.684Z,-1.8
2019-02-16T02:35:41.593Z,-1.8
2019-02-16T02:36:27.507Z,-1.9
2019-02-16T02:37:13.451Z,-1.9
2019-02-16T02:37:59.363Z,-1.9
2019-02-16T02:38:45.278Z,-1.9
2019-02-16T02:39:31.222Z,-1.9
2019-02-16T02:40:17.139Z,-1.9
2019-02-16T02:41:03.068Z,-1.8
2019-02-16T02:41:48.986Z,-1.8
2019-02-16T02:42:34.934Z,-1.8
2019-02-16T02:43:20.845Z,-1.8
2019-02-16T02:44:06.758Z,-1.8
2019-02-16T02:44:52.673Z,-1.8
2019-02-16T02:45:38.590Z,-1.8
2019-02-16T02:46:24.508Z,-1.8
2019-02-16T02:47:10.433Z,-1.7
2019-02-16T02:47:56.399Z,-1.7
2019-02-16T02:48:42.315Z,-1.6
2019-02-16T02:49:28.241Z,-1.6
2019-02-16T02:50:14.154Z,-1.6
2019-02-16T02:51:00.075Z,-1.5
2019-02-16T02:51:51.853Z,-1.5
2019-02-16T02:52:36.877Z,-1.6
2019-02-16T02:53:30.611Z,-1.5
2019-02-16T02:54:13.643Z,-1.5
2019-02-16T02:54:59.566Z,-1.6
2019-02-16T02:55:45.478Z,-1.6
2019-02-16T02:56:31.397Z,-1.6
2019-02-16T02:57:17.328Z,-1.6
2019-02-16T02:58:03.277Z,-1.6
2019-02-16T02:58:49.216Z,-1.6
2019-02-16T02:59:35.130Z,-1.6
2019-02-16T03:00:21.051Z,-1.6
2019-02-16T03:01:06.978Z,-1.6
2019-02-16T03:01:52.893Z,-1.7
2019-02-16T03:02:38.837Z,-1.7
2019-02-16T03:03:24.758Z,-1.8
2019-02-16T03:04:10.674Z,-1.8
2019-02-16T03:04:56.593Z,-1.8
2019-02-16T03:05:42.505Z,-1.8
2019-02-16T03:06:28.423Z,-1.8
2019-02-16T03:07:14.339Z,-1.8
2019-02-16T03:08:00.283Z,-1.9
2019-02-16T03:08:46.199Z,-1.9
2019-02-16T03:09:32.137Z,-1.8
2019-02-16T03:10:18.056Z,-1.8
2019-02-16T03:11:04.032Z,-1.9
2019-02-16T03:11:49.953Z,-1.9
2019-02-16T03:12:35.868Z,-2
2019-02-16T03:13:21.823Z,-2.1
2019-02-16T03:14:07.743Z,-2.1
2019-02-16T03:14:53.686Z,-2.1
2019-02-16T03:15:39.609Z,-2.2
2019-02-16T03:16:26.167Z,-2.2
2019-02-16T03:17:12.236Z,-2.3
2019-02-16T03:17:58.193Z,-2.3
2019-02-16T03:18:44.097Z,-2.2
2019-02-16T03:19:30.013Z,-2.3
2019-02-16T03:20:15.926Z,-2.2
2019-02-16T03:21:01.842Z,-2.2
2019-02-16T03:21:47.779Z,-2.2
2019-02-16T03:22:33.726Z,-2.1
2019-02-16T03:23:19.694Z,-2.1
2019-02-16T03:24:05.622Z,-2
2019-02-16T03:24:51.543Z,-2
2019-02-16T03:25:37.455Z,-1.9
2019-02-16T03:26:23.369Z,-1.8
2019-02-16T03:27:09.290Z,-1.8
2019-02-16T03:27:55.208Z,-1.8
2019-02-16T03:28:41.156Z,-1.8
2019-02-16T03:29:27.076Z,-1.6
2019-02-16T03:30:12.991Z,-1.4
2019-02-16T03:30:58.937Z,-1.4
2019-02-16T03:31:44.852Z,-1.4
2019-02-16T03:32:30.782Z,-1.3
2019-02-16T03:33:16.821Z,-1.4
2019-02-16T03:34:02.817Z,-1.4
2019-02-16T03:34:48.775Z,-1.5
2019-02-16T03:35:34.701Z,-1.6
2019-02-16T03:36:20.617Z,-1.6
2019-02-16T03:37:06.541Z,-1.6
2019-02-16T03:37:52.465Z,-1.6
2019-02-16T03:38:38.442Z,-1.6
2019-02-16T03:39:24.370Z,-1.6
2019-02-16T03:40:10.299Z,-1.6
2019-02-16T03:40:56.222Z,-1.6
2019-02-16T03:41:42.143Z,-1.8
2019-02-16T03:42:28.053Z,-1.8
2019-02-16T03:43:13.976Z,-1.8
2019-02-16T03:43:59.913Z,-1.8
2019-02-16T03:44:45.831Z,-1.8
2019-02-16T03:45:31.746Z,-1.8
2019-02-16T03:46:17.665Z,-1.6
2019-02-16T03:47:03.590Z,-1.7
2019-02-16T03:47:49.516Z,-1.8
2019-02-16T03:48:35.445Z,-1.8
2019-02-16T03:49:21.385Z,-1.8
2019-02-16T03:50:07.303Z,-1.8
2019-02-16T03:50:53.225Z,-1.8
2019-02-16T03:51:39.135Z,-1.9
2019-02-16T03:52:25.044Z,-1.8
2019-02-16T03:53:10.968Z,-1.8
2019-02-16T03:53:56.949Z,-1.8
2019-02-16T03:54:42.873Z,-1.7
2019-02-16T03:55:28.797Z,-1.8
2019-02-16T03:56:14.711Z,-1.7
2019-02-16T03:57:00.639Z,-1.7
2019-02-16T03:57:46.581Z,-1.6
2019-02-16T03:58:32.502Z,-1.6
2019-02-16T03:59:18.469Z,-1.7
2019-02-16T04:00:04.388Z,-1.7
2019-02-16T04:00:50.332Z,-1.7
2019-02-16T04:01:36.958Z,-1.7
2019-02-16T04:02:22.879Z,-1.7
2019-02-16T04:03:08.797Z,-1.7
2019-02-16T04:03:54.724Z,-1.6
2019-02-16T04:04:40.666Z,-1.7
2019-02-16T04:05:26.576Z,-1.8
2019-02-16T04:06:12.486Z,-1.8
2019-02-16T04:06:58.396Z,-1.8
2019-02-16T04:07:44.332Z,-1.9
2019-02-16T04:08:30.254Z,-1.9
2019-02-16T04:09:16.196Z,-1.9
2019-02-16T04:10:02.117Z,-1.9
2019-02-16T04:10:48.036Z,-1.9
2019-02-16T04:11:34.076Z,-1.8
2019-02-16T04:12:19.995Z,-1.8
2019-02-16T04:13:05.908Z,-1.9
2019-02-16T04:13:51.819Z,-1.9
2019-02-16T04:14:37.758Z,-2
2019-02-16T04:15:23.671Z,-2
2019-02-16T04:16:09.580Z,-2
2019-02-16T04:16:55.491Z,-2
2019-02-16T04:17:41.417Z,-1.9
2019-02-16T04:18:27.352Z,-1.9
2019-02-16T04:19:13.272Z,-1.9
2019-02-16T04:19:59.215Z,-1.8
2019-02-16T04:20:45.131Z,-1.9
2019-02-16T04:21:31.052Z,-1.9
2019-02-16T04:22:24.115Z,-2
2019-02-16T04:23:07.826Z,-1.9
2019-02-16T04:23:53.743Z,-1.9
2019-02-16T04:24:39.696Z,-1.9
2019-02-16T04:25:25.621Z,-1.8
2019-02-16T04:26:11.544Z,-1.8
2019-02-16T04:26:57.470Z,-1.8
2019-02-16T04:27:43.387Z,-1.9
2019-02-16T04:28:29.307Z,-1.8
2019-02-16T04:29:15.225Z,-1.9
2019-02-16T04:30:01.177Z,-2
2019-02-16T04:30:47.089Z,-2.1
2019-02-16T04:31:33.008Z,-2
2019-02-16T04:32:18.921Z,-1.9
2019-02-16T04:33:04.833Z,-1.9
2019-02-16T04:33:50.774Z,-1.9
2019-02-16T04:34:36.689Z,-1.9
2019-02-16T04:35:22.633Z,-1.9
2019-02-16T04:36:08.541Z,-1.9
2019-02-16T04:36:54.466Z,-1.9
2019-02-16T04:37:40.382Z,-2
2019-02-16T04:38:26.301Z,-2.1
2019-02-16T04:39:12.232Z,-2.1
2019-02-16T04:39:58.254Z,-2.2
2019-02-16T04:40:44.164Z,-2.2
2019-02-16T04:41:30.081Z,-2.1
2019-02-16T04:42:15.989Z,-2.1
2019-02-16T04:43:01.905Z,-2.1
2019-02-16T04:43:48.145Z,-2.1
2019-02-16T04:44:34.090Z,-2
2019-02-16T04:45:20.036Z,-2
2019-02-16T04:46:05.960Z,-2.1
2019-02-16T04:46:51.902Z,-2
2019-02-16T04:47:37.824Z,-2
2019-02-16T04:48:23.733Z,-2
2019-02-16T04:49:09.657Z,-2
2019-02-16T04:49:55.580Z,-1.9
2019-02-16T04:50:41.549Z,-1.9
2019-02-16T04:51:27.470Z,-1.9
2019-02-16T04:52:13.384Z,-1.9
2019-02-16T04:52:59.308Z,-1.8
2019-02-16T04:53:45.239Z,-1.9
2019-02-16T04:54:31.153Z,-1.9
2019-02-16T04:55:17.102Z,-2
2019-02-16T04:56:03.008Z,-1.9
2019-02-16T04:56:48.912Z,-1.8
2019-02-16T04:57:34.835Z,-1.7
2019-02-16T04:58:20.750Z,-1.6
2019-02-16T04:59:06.674Z,-1.6
2019-02-16T04:59:52.596Z,-1.6
2019-02-16T05:00:38.542Z,-1.6
2019-02-16T05:01:24.459Z,-1.7
2019-02-16T05:02:10.374Z,-1.8
2019-02-16T05:02:56.287Z,-1.9
2019-02-16T05:03:42.201Z,-1.9
2019-02-16T05:04:28.114Z,-1.9
2019-02-16T05:05:14.039Z,-2
2019-02-16T05:06:00.217Z,-2
2019-02-16T05:06:46.195Z,-2
2019-02-16T05:07:32.151Z,-2.1
2019-02-16T05:08:18.067Z,-2.1
2019-02-16T05:09:03.986Z,-2.1
2019-02-16T05:09:49.902Z,-2.1
2019-02-16T05:10:35.855Z,-2.2
2019-02-16T05:11:21.791Z,-2.1
2019-02-16T05:12:07.713Z,-2.2
2019-02-16T05:12:53.625Z,-2.1
2019-02-16T05:13:39.542Z,-2
2019-02-16T05:14:25.462Z,-1.9
2019-02-16T05:15:11.389Z,-1.9
2019-02-16T05:15:57.328Z,-1.8
2019-02-16T05:16:43.263Z,-1.8
2019-02-16T05:17:29.201Z,-1.8
2019-02-16T05:18:15.108Z,-1.7
2019-02-16T05:19:01.026Z,-1.7
2019-02-16T05:19:46.953Z,-1.8
2019-02-16T05:20:32.868Z,-1.8
2019-02-16T05:21:18.815Z,-1.8
2019-02-16T05:22:04.741Z,-1.7
2019-02-16T05:22:50.663Z,-1.7
2019-02-16T05:23:36.662Z,-1.6
2019-02-16T05:24:22.586Z,-1.6
2019-02-16T05:25:08.502Z,-1.5
2019-02-16T05:25:54.455Z,-1.4
2019-02-16T05:26:40.372Z,-1.4
2019-02-16T05:27:26.282Z,-1.4
2019-02-16T05:28:12.208Z,-1.3
2019-02-16T05:28:58.134Z,-1.1
2019-02-16T05:29:44.056Z,-0.9
2019-02-16T05:30:29.961Z,-0.8
2019-02-16T05:31:15.910Z,-0.7
2019-02-16T05:32:01.842Z,-0.6
2019-02-16T05:32:47.763Z,-0.6
2019-02-16T05:33:33.682Z,-0.6
2019-02-16T05:34:19.611Z,-0.6
2019-02-16T05:35:05.541Z,-0.6
2019-02-16T05:35:51.532Z,-0.6
2019-02-16T05:36:37.454Z,-0.6
2019-02-16T05:37:23.380Z,-0.6
2019-02-16T05:38:09.298Z,-0.5
2019-02-16T05:38:55.226Z,-0.5
2019-02-16T05:39:41.139Z,-0.6
2019-02-16T05:40:27.089Z,-0.6
2019-02-16T05:41:13.036Z,-0.7
2019-02-16T05:41:58.954Z,-0.8
2019-02-16T05:42:44.866Z,-0.7
2019-02-16T05:43:30.783Z,-0.8
2019-02-16T05:44:16.698Z,-0.8
2019-02-16T05:45:02.670Z,-0.8
2019-02-16T05:45:48.594Z,-0.8
2019-02-16T05:46:34.550Z,-0.7
2019-02-16T05:47:20.463Z,-0.6
2019-02-16T05:48:06.382Z,-0.6
2019-02-16T05:48:52.296Z,-0.5
2019-02-16T05:49:38.215Z,-0.5
2019-02-16T05:50:24.131Z,-0.4
2019-02-16T05:51:10.090Z,-0.3
2019-02-16T05:51:56.018Z,-0.3
2019-02-16T05:52:41.938Z,-0.4
2019-02-16T05:53:27.854Z,-0.3
2019-02-16T05:54:13.771Z,-0.3
2019-02-16T05:54:59.680Z,-0.3
2019-02-16T05:55:45.602Z,-0.3
2019-02-16T05:56:31.545Z,-0.2
2019-02-16T05:57:17.457Z,-0.2
2019-02-16T05:58:03.376Z,-0.1
2019-02-16T05:58:49.320Z,-0.1
2019-02-16T05:59:35.248Z,-0.1
2019-02-16T06:00:21.248Z,0
2019-02-16T06:01:07.247Z,-0.1
2019-02-16T06:01:54.121Z,-0.1
2019-02-16T06:02:40.201Z,-0.1
2019-02-16T06:03:26.141Z,-0.1
2019-02-16T06:04:12.069Z,-0.2
2019-02-16T06:04:57.984Z,-0.2
2019-02-16T06:05:43.904Z,-0.2
2019-02-16T06:06:29.851Z,-0.3
2019-02-16T06:07:15.793Z,-0.3
2019-02-16T06:08:01.785Z,-0.3
2019-02-16T06:08:47.732Z,-0.3
2019-02-16T06:09:33.650Z,-0.3
2019-02-16T06:10:19.562Z,-0.3
2019-02-16T06:11:06.048Z,-0.2
2019-02-16T06:11:52.113Z,-0.2
2019-02-16T06:12:38.025Z,-0.3
2019-02-16T06:13:23.937Z,-0.4
2019-02-16T06:14:09.844Z,-0.4
2019-02-16T06:14:55.756Z,-0.4
2019-02-16T06:15:41.663Z,-0.3
2019-02-16T06:16:27.611Z,-0.3
2019-02-16T06:17:13.524Z,-0.3
2019-02-16T06:18:04.396Z,-0.3
2019-02-16T06:18:50.311Z,-0.3
2019-02-16T06:19:36.225Z,-0.3
2019-02-16T06:20:22.155Z,-0.3
2019-02-16T06:21:08.071Z,-0.3
2019-02-16T06:21:54.023Z,-0.3
2019-02-16T06:22:39.941Z,-0.3
2019-02-16T06:23:25.868Z,-0.3
2019-02-16T06:24:11.815Z,-0.3
2019-02-16T06:24:57.736Z,-0.3
2019-02-16T06:25:43.672Z,-0.3
2019-02-16T06:26:29.617Z,-0.2
2019-02-16T06:27:15.540Z,-0.2
2019-02-16T06:28:01.456Z,-0.1
2019-02-16T06:28:47.418Z,-0.1
2019-02-16T06:29:33.343Z,-0.2
2019-02-16T06:30:19.267Z,-0.3
2019-02-16T06:31:05.168Z,-0.3
2019-02-16T06:31:51.119Z,-0.3
2019-02-16T06:32:37.031Z,-0.3
2019-02-16T06:33:22.961Z,-0.3
2019-02-16T06:34:08.874Z,-0.3
2019-02-16T06:34:54.791Z,-0.3
2019-02-16T06:35:40.706Z,-0.3
2019-02-16T06:36:26.623Z,-0.3
2019-02-16T06:37:12.562Z,-0.3
2019-02-16T06:37:58.478Z,-0.2
2019-02-16T06:38:44.401Z,-0.1
2019-02-16T06:39:30.318Z,-0.1
2019-02-16T06:40:16.231Z,-0.1
2019-02-16T06:41:02.151Z,-0.1
2019-02-16T06:41:48.102Z,-0.1
2019-02-16T06:42:34.014Z,0
2019-02-16T06:43:19.926Z,0
2019-02-16T06:44:05.849Z,-0.1
2019-02-16T06:44:51.763Z,-0.1
2019-02-16T06:45:37.681Z,-0.1
2019-02-16T06:46:23.622Z,-0.1
2019-02-16T06:47:09.579Z,-0.1
2019-02-16T06:47:55.506Z,-0.1
2019-02-16T06:48:41.423Z,-0.1
2019-02-16T06:49:27.343Z,-0.1
2019-02-16T06:50:13.251Z,-0.1
2019-02-16T06:50:59.174Z,0
2019-02-16T06:51:45.138Z,0
2019-02-16T06:52:31.049Z,-0.1
2019-02-16T06:53:16.997Z,-0.1
2019-02-16T06:54:02.906Z,-0.1
2019-02-16T06:54:48.820Z,-0.1
2019-02-16T06:55:34.729Z,-0.1
2019-02-16T06:56:20.660Z,-0.1
2019-02-16T06:57:06.607Z,0
2019-02-16T06:57:52.523Z,0
2019-02-16T06:58:38.434Z,0
2019-02-16T06:59:24.341Z,-0.1
2019-02-16T07:00:10.256Z,0
2019-02-16T07:00:56.165Z,0.1
2019-02-16T07:01:42.080Z,0.1
2019-02-16T07:02:28.039Z,0.1
2019-02-16T07:03:13.962Z,0.1
2019-02-16T07:03:59.889Z,0.1
2019-02-16T07:04:45.809Z,0.2
2019-02-16T07:05:31.733Z,0.3
2019-02-16T07:06:17.647Z,0.3
2019-02-16T07:07:03.568Z,0.2
2019-02-16T07:07:49.514Z,0.3
2019-02-16T07:08:35.427Z,0.3
2019-02-16T07:09:21.342Z,0.3
2019-02-16T07:10:07.261Z,0.3
2019-02-16T07:10:53.183Z,0.3
2019-02-16T07:11:39.120Z,0.3
2019-02-16T07:12:25.081Z,0.3
2019-02-16T07:13:10.995Z,0.3
2019-02-16T07:13:56.932Z,0.4
2019-02-16T07:14:42.886Z,0.4
2019-02-16T07:15:28.808Z,0.4
2019-02-16T07:16:14.724Z,0.4
2019-02-16T07:17:00.643Z,0.5
2019-02-16T07:17:46.590Z,0.4
2019-02-16T07:18:32.509Z,0.4
2019-02-16T07:19:18.434Z,0.4
2019-02-16T07:20:04.360Z,0.4
2019-02-16T07:20:50.274Z,0.4
2019-02-16T07:21:36.201Z,0.4
2019-02-16T07:22:22.120Z,0.4
2019-02-16T07:23:08.086Z,0.3
2019-02-16T07:23:54.006Z,0.4
2019-02-16T07:24:39.923Z,0.4
2019-02-16T07:25:25.841Z,0.4
2019-02-16T07:26:11.759Z,0.4
2019-02-16T07:26:57.680Z,0.5
2019-02-16T07:27:43.640Z,0.6
2019-02-16T07:28:29.554Z,0.7
2019-02-16T07:29:15.469Z,0.7
2019-02-16T07:30:01.380Z,0.8
2019-02-16T07:30:47.315Z,0.8
2019-02-16T07:31:33.253Z,0.9
2019-02-16T07:32:19.164Z,0.9
2019-02-16T07:33:05.113Z,0.9
2019-02-16T07:33:51.086Z,0.9
2019-02-16T07:34:37.015Z,0.9
2019-02-16T07:35:22.925Z,0.9
2019-02-16T07:36:08.846Z,1
2019-02-16T07:36:54.768Z,1.1
2019-02-16T07:37:40.719Z,1.1
2019-02-16T07:38:26.676Z,1.1
2019-02-16T07:39:12.587Z,1.3
2019-02-16T07:39:58.494Z,1.3
2019-02-16T07:40:44.412Z,1.4
2019-02-16T07:41:30.330Z,1.4
2019-02-16T07:42:16.250Z,1.4
2019-02-16T07:43:02.193Z,1.4
2019-02-16T07:43:48.114Z,1.5
2019-02-16T07:44:34.025Z,1.5
2019-02-16T07:45:19.951Z,1.5
2019-02-16T07:46:05.870Z,1.5
2019-02-16T07:46:51.790Z,1.5
2019-02-16T07:47:37.704Z,1.6
2019-02-16T07:48:23.657Z,1.6
2019-02-16T07:49:09.565Z,1.6
2019-02-16T07:49:55.485Z,1.7
2019-02-16T07:50:41.398Z,1.7
2019-02-16T07:51:27.313Z,1.7
2019-02-16T07:52:13.295Z,1.8
2019-02-16T07:52:59.218Z,1.9
2019-02-16T07:53:45.166Z,1.9
2019-02-16T07:54:31.080Z,2.1
2019-02-16T07:55:16.995Z,2.2
2019-02-16T07:56:02.963Z,2.2
2019-02-16T07:56:48.889Z,2.3
2019-02-16T07:57:34.809Z,2.4
2019-02-16T07:58:20.781Z,2.4
2019-02-16T07:59:06.700Z,2.5
2019-02-16T07:59:52.615Z,2.5
2019-02-16T08:00:38.548Z,2.4
2019-02-16T08:01:24.468Z,2.4
2019-02-16T08:02:10.375Z,2.5
2019-02-16T08:02:56.289Z,2.5
2019-02-16T08:03:42.242Z,2.5
2019-02-16T08:04:28.157Z,2.6
2019-02-16T08:05:14.074Z,2.6
2019-02-16T08:05:59.999Z,2.6
2019-02-16T08:06:45.921Z,2.6
2019-02-16T08:07:31.839Z,2.6
2019-02-16T08:08:17.762Z,2.6
2019-02-16T08:09:03.711Z,2.6
2019-02-16T08:09:49.635Z,2.6
2019-02-16T08:10:35.552Z,2.7
2019-02-16T08:11:21.469Z,2.8
2019-02-16T08:12:07.383Z,2.9
2019-02-16T08:12:53.293Z,2.9
2019-02-16T08:13:39.247Z,2.9
2019-02-16T08:14:25.159Z,2.9
2019-02-16T08:15:11.084Z,2.9
2019-02-16T08:15:57.008Z,2.8
2019-02-16T08:16:42.921Z,2.8
2019-02-16T08:17:28.836Z,2.7
2019-02-16T08:18:14.749Z,2.7
2019-02-16T08:19:00.711Z,2.7
2019-02-16T08:19:46.639Z,2.7
2019-02-16T08:20:32.569Z,2.7
2019-02-16T08:21:18.508Z,2.8
2019-02-16T08:22:04.448Z,2.9
2019-02-16T08:22:50.365Z,2.9
2019-02-16T08:23:40.284Z,3
2019-02-16T08:24:26.367Z,3
2019-02-16T08:25:12.290Z,3
2019-02-16T08:25:58.227Z,3
2019-02-16T08:26:44.211Z,2.9
2019-02-16T08:27:30.140Z,3
2019-02-16T08:28:16.048Z,3.1
2019-02-16T08:29:02.029Z,3.1
2019-02-16T08:29:47.934Z,3.1
2019-02-16T08:30:33.849Z,3.1
2019-02-16T08:31:19.761Z,3.1
2019-02-16T08:32:05.679Z,3.1
2019-02-16T08:32:51.611Z,3.1
2019-02-16T08:33:37.525Z,3.1
2019-02-16T08:34:23.473Z,3.1
2019-02-16T08:35:09.392Z,3.1
2019-02-16T08:35:55.310Z,3.1
2019-02-16T08:36:41.218Z,3.2
2019-02-16T08:37:27.128Z,3.2
2019-02-16T08:38:13.061Z,3.1
2019-02-16T08:38:59.019Z,3.2
2019-02-16T08:39:44.959Z,3.2
2019-02-16T08:40:30.878Z,3.2
2019-02-16T08:41:16.789Z,3.2
2019-02-16T08:42:02.702Z,3.2
2019-02-16T08:42:48.633Z,3.2
2019-02-16T08:43:34.548Z,3.2
2019-02-16T08:44:20.502Z,3.2
2019-02-16T08:45:06.457Z,3.2
2019-02-16T08:45:52.366Z,3.2
2019-02-16T08:46:38.279Z,3.2
2019-02-16T08:47:24.189Z,3.2
2019-02-16T08:48:10.105Z,3.2
2019-02-16T08:48:56.024Z,3.2
2019-02-16T08:49:42.000Z,3.2
2019-02-16T08:50:29.494Z,3.2
2019-02-16T08:51:15.541Z,3.2
2019-02-16T08:52:01.458Z,3.2
2019-02-16T08:52:47.408Z,3.2
2019-02-16T08:53:33.321Z,3.2
2019-02-16T08:54:19.252Z,3.2
2019-02-16T08:55:05.192Z,3.2
2019-02-16T08:55:51.150Z,3.2
2019-02-16T08:56:37.074Z,3.2
2019-02-16T08:57:22.986Z,3.2
2019-02-16T08:58:08.894Z,3.2
2019-02-16T08:58:54.798Z,3.2
2019-02-16T08:59:40.711Z,3.2
2019-02-16T09:00:26.743Z,3.2
2019-02-16T09:01:16.414Z,3.2
2019-02-16T09:02:02.334Z,3.2
2019-02-16T09:02:48.267Z,3.2
2019-02-16T09:03:34.183Z,3.2
2019-02-16T09:04:20.089Z,3.2
2019-02-16T09:05:06.042Z,3.2
2019-02-16T09:05:51.955Z,3.2
2019-02-16T09:06:37.897Z,3.2
2019-02-16T09:07:23.829Z,3.2
2019-02-16T09:08:09.742Z,3.2
2019-02-16T09:08:55.654Z,3.2
2019-02-16T09:09:41.569Z,3.3
2019-02-16T09:10:27.516Z,3.3
2019-02-16T09:11:13.443Z,3.3
2019-02-16T09:11:59.372Z,3.3
2019-02-16T09:12:45.281Z,3.3
2019-02-16T09:13:31.200Z,3.3
2019-02-16T09:14:17.108Z,3.3
2019-02-16T09:15:03.023Z,3.3
2019-02-16T09:15:48.958Z,3.3
2019-02-16T09:16:36.882Z,3.3
2019-02-16T09:17:23.898Z,3.3
2019-02-16T09:18:09.799Z,3.3
2019-02-16T09:18:55.711Z,3.3
2019-02-16T09:19:41.621Z,3.3
2019-02-16T09:20:27.561Z,3.3
2019-02-16T09:21:14.916Z,3.3
2019-02-16T09:22:01.079Z,3.3
2019-02-16T09:22:46.997Z,3.3
2019-02-16T09:23:32.908Z,3.3
2019-02-16T09:24:18.823Z,3.3
2019-02-16T09:25:04.756Z,3.3
2019-02-16T09:25:50.699Z,3.3
2019-02-16T09:26:36.634Z,3.4
2019-02-16T09:27:22.549Z,3.3
2019-02-16T09:28:08.464Z,3.4
2019-02-16T09:28:54.371Z,3.3
2019-02-16T09:29:40.284Z,3.4
2019-02-16T09:30:26.193Z,3.4
2019-02-16T09:31:12.138Z,3.4
2019-02-16T09:31:58.044Z,3.4
2019-02-16T09:32:43.965Z,3.4
2019-02-16T09:33:29.887Z,3.4
2019-02-16T09:34:15.806Z,3.4
2019-02-16T09:35:01.714Z,3.4
2019-02-16T09:35:47.657Z,3.4
2019-02-16T09:36:33.576Z,3.4
2019-02-16T09:37:19.485Z,3.4
2019-02-16T09:38:05.419Z,3.4
2019-02-16T09:38:51.334Z,3.4
2019-02-16T09:39:37.256Z,3.4
2019-02-16T09:40:23.177Z,3.4
2019-02-16T09:41:09.130Z,3.4
2019-02-16T09:41:55.051Z,3.4
2019-02-16T09:42:40.974Z,3.4
2019-02-16T09:43:26.888Z,3.4
2019-02-16T09:44:12.812Z,3.4
2019-02-16T09:44:58.738Z,3.4
2019-02-16T09:45:44.647Z,3.4
2019-02-16T09:46:30.596Z,3.4
2019-02-16T09:47:16.502Z,3.4
2019-02-16T09:48:02.414Z,3.4
2019-02-16T09:48:48.333Z,3.4
2019-02-16T09:49:34.244Z,3.4
2019-02-16T09:50:20.162Z,3.4
2019-02-16T09:51:06.114Z,3.4
2019-02-16T09:51:52.029Z,3.4
2019-02-16T09:52:37.952Z,3.4
2019-02-16T09:53:23.876Z,3.4
2019-02-16T09:54:09.814Z,3.5
2019-02-16T09:54:55.726Z,3.5
2019-02-16T09:55:41.633Z,3.5
2019-02-16T09:56:27.567Z,3.5
2019-02-16T09:57:13.481Z,3.5
2019-02-16T09:57:59.400Z,3.5
2019-02-16T09:58:45.314Z,3.5
2019-02-16T09:59:31.239Z,3.5
2019-02-16T10:00:17.238Z,3.5
2019-02-16T10:01:08.160Z,3.5
2019-02-16T10:01:54.091Z,3.5
2019-02-16T10:02:40.010Z,3.5
2019-02-16T10:03:25.951Z,3.5
2019-02-16T10:04:11.884Z,3.5
2019-02-16T10:04:57.787Z,3.5
2019-02-16T10:05:43.713Z,3.5
2019-02-16T10:06:29.656Z,3.6
2019-02-16T10:07:15.564Z,3.6
2019-02-16T10:08:01.471Z,3.6
2019-02-16T10:08:47.380Z,3.6
2019-02-16T10:09:33.291Z,3.6
2019-02-16T10:10:19.208Z,3.6
2019-02-16T10:11:05.121Z,3.6
2019-02-16T10:11:51.058Z,3.6
2019-02-16T10:12:36.965Z,3.6
2019-02-16T10:13:22.887Z,3.6
2019-02-16T10:14:08.801Z,3.6
2019-02-16T10:14:54.710Z,3.6
2019-02-16T10:15:40.620Z,3.6
2019-02-16T10:16:26.535Z,3.6
2019-02-16T10:17:12.484Z,3.6
2019-02-16T10:18:03.352Z,3.6
2019-02-16T10:18:49.271Z,3.6
2019-02-16T10:19:35.194Z,3.6
2019-02-16T10:20:21.116Z,3.6
2019-02-16T10:21:07.040Z,3.6